createdAt,value
2019-02-25T00:02:26.437Z,102582.44
2019-02-25T00:04:57.869Z,102580.02
2019-02-25T00:07:29.213Z,102577.48
2019-02-25T00:10:00.547Z,102571.12
2019-02-25T00:12:32.044Z,102574.84
2019-02-25T00:15:03.435Z,102568.70
2019-02-25T00:17:37.142Z,102571.93
2019-02-25T00:20:13.069Z,102563.06
2019-02-25T00:22:44.419Z,102561.86
2019-02-25T00:25:15.736Z,102571.91
2019-02-25T00:27:47.063Z,102568.16
2019-02-25T00:30:18.400Z,102562.28
2019-02-25T00:32:49.860Z,102560.38
2019-02-25T00:35:21.283Z,102567.47
2019-02-25T00:37:52.589Z,102554.87
2019-02-25T00:40:23.853Z,102552.66
2019-02-25T00:42:55.184Z,102547.81
2019-02-25T00:45:26.459Z,102542.77
2019-02-25T00:47:57.771Z,102542.84
2019-02-25T00:50:54.240Z,102533.66
2019-02-25T00:53:25.667Z,102540.38
2019-02-25T00:55:57.021Z,102546.16
2019-02-25T00:58:28.343Z,102541.72
2019-02-25T01:00:59.596Z,102542.41
2019-02-25T01:03:30.964Z,102534.89
2019-02-25T01:06:03.278Z,102531.98
2019-02-25T01:08:34.619Z,102540.48
2019-02-25T01:11:06.017Z,102545.52
2019-02-25T01:13:37.331Z,102541.22
2019-02-25T01:16:08.673Z,102542.42
2019-02-25T01:18:39.965Z,102544.08
2019-02-25T01:21:11.253Z,102538.46
2019-02-25T01:23:42.556Z,102536.70
2019-02-25T01:26:13.823Z,102544.48
2019-02-25T01:28:45.115Z,102541.38
2019-02-25T01:31:16.354Z,102545.63
2019-02-25T01:33:47.648Z,102545.00
2019-02-25T01:36:18.970Z,102551.47
2019-02-25T01:38:50.272Z,102553.84
2019-02-25T01:41:21.542Z,102553.73
2019-02-25T01:43:52.916Z,102554.41
2019-02-25T01:46:24.163Z,102557.58
2019-02-25T01:48:55.452Z,102548.20
2019-02-25T01:51:26.785Z,102552.17
2019-02-25T01:53:58.373Z,102546.59
2019-02-25T01:56:29.628Z,102545.06
2019-02-25T01:59:01.260Z,102555.14
2019-02-25T02:01:32.508Z,102542.09
2019-02-25T02:04:03.812Z,102538.58
2019-02-25T02:06:35.173Z,102544.31
2019-02-25T02:09:08.567Z,102532.77
2019-02-25T02:11:40.734Z,102533.48
2019-02-25T02:14:11.986Z,102531.70
2019-02-25T02:16:43.340Z,102541.36
2019-02-25T02:19:14.608Z,102539.66
2019-02-25T02:21:45.972Z,102545.23
2019-02-25T02:24:17.218Z,102550.80
2019-02-25T02:26:48.492Z,102541.63
2019-02-25T02:29:19.864Z,102540.72
2019-02-25T02:31:51.945Z,102538.38
2019-02-25T02:34:24.332Z,102531.47
2019-02-25T02:36:55.575Z,102536.52
2019-02-25T02:39:26.958Z,102530.81
2019-02-25T02:42:16.719Z,102521.23
2019-02-25T02:44:52.387Z,102519.33
2019-02-25T02:47:36.835Z,102524.09
2019-02-25T02:50:12.827Z,102521.38
2019-02-25T02:52:44.126Z,102518.37
2019-02-25T02:55:15.425Z,102520.82
2019-02-25T02:57:46.735Z,102526.44
2019-02-25T03:00:19.945Z,102536.14
2019-02-25T03:02:51.314Z,102534.61
2019-02-25T03:05:22.652Z,102538.69
2019-02-25T03:07:53.907Z,102535.17
2019-02-25T03:10:25.283Z,102535.56
2019-02-25T03:12:56.532Z,102538.46
2019-02-25T03:15:27.976Z,102537.78
2019-02-25T03:17:59.251Z,102541.02
2019-02-25T03:20:30.770Z,102545.17
2019-02-25T03:23:02.095Z,102545.80
2019-02-25T03:25:33.474Z,102550.34
2019-02-25T03:28:04.792Z,102543.92
2019-02-25T03:30:36.177Z,102545.46
2019-02-25T03:33:07.581Z,102539.22
2019-02-25T03:35:38.950Z,102539.33
2019-02-25T03:38:10.205Z,102537.68
2019-02-25T03:40:41.581Z,102545.68
2019-02-25T03:43:12.853Z,102548.34
2019-02-25T03:45:44.167Z,102545.38
2019-02-25T03:48:15.470Z,102555.31
2019-02-25T03:50:46.781Z,102552.87
2019-02-25T03:53:18.053Z,102557.34
2019-02-25T03:55:49.543Z,102559.33
2019-02-25T03:58:21.941Z,102558.46
2019-02-25T04:00:53.500Z,102558.06
2019-02-25T04:03:24.980Z,102558.97
2019-02-25T04:05:56.493Z,102559.09
2019-02-25T04:08:28.015Z,102558.92
2019-02-25T04:10:59.305Z,102561.07
2019-02-25T04:13:30.562Z,102557.55
2019-02-25T04:16:03.293Z,102551.70
2019-02-25T04:18:39.066Z,102551.42
2019-02-25T04:21:10.417Z,102543.19
2019-02-25T04:23:41.707Z,102558.34
2019-02-25T04:26:13.023Z,102561.27
2019-02-25T04:28:44.264Z,102568.87
2019-02-25T04:31:15.568Z,102566.22
2019-02-25T04:33:47.863Z,102562.86
2019-02-25T04:36:19.249Z,102563.69
2019-02-25T04:38:50.517Z,102553.81
2019-02-25T04:41:21.819Z,102551.87
2019-02-25T04:43:53.071Z,102559.50
2019-02-25T04:46:24.379Z,102562.50
2019-02-25T04:48:55.723Z,102563.61
2019-02-25T04:51:27.175Z,102558.08
2019-02-25T04:53:58.544Z,102549.84
2019-02-25T04:56:30.296Z,102562.19
2019-02-25T04:59:01.540Z,102553.09
2019-02-25T05:01:33.847Z,102553.37
2019-02-25T05:04:05.176Z,102560.67
2019-02-25T05:06:36.510Z,102560.31
2019-02-25T05:09:07.833Z,102564.38
2019-02-25T05:11:39.285Z,102564.78
2019-02-25T05:14:10.571Z,102563.62
2019-02-25T05:16:42.013Z,102565.89
2019-02-25T05:19:13.368Z,102562.37
2019-02-25T05:21:44.753Z,102567.06
2019-02-25T05:24:16.000Z,102569.17
2019-02-25T05:26:47.357Z,102567.11
2019-02-25T05:29:18.747Z,102564.38
2019-02-25T05:31:51.279Z,102564.64
2019-02-25T05:34:22.537Z,102560.11
2019-02-25T05:36:53.904Z,102564.05
2019-02-25T05:39:25.216Z,102554.83
2019-02-25T05:41:56.520Z,102554.46
2019-02-25T05:44:27.842Z,102550.83
2019-02-25T05:46:59.161Z,102546.42
2019-02-25T05:49:30.465Z,102550.59
2019-02-25T05:52:02.218Z,102549.42
2019-02-25T05:54:34.575Z,102546.56
2019-02-25T05:57:05.978Z,102550.22
2019-02-25T05:59:37.269Z,102547.76
2019-02-25T06:02:08.629Z,102552.95
2019-02-25T06:04:39.956Z,102555.78
2019-02-25T06:07:11.239Z,102564.38
2019-02-25T06:09:42.607Z,102561.91
2019-02-25T06:12:13.949Z,102573.11
2019-02-25T06:14:45.325Z,102569.33
2019-02-25T06:17:16.580Z,102579.36
2019-02-25T06:19:48.013Z,102580.41
2019-02-25T06:22:19.232Z,102586.02
2019-02-25T06:24:50.549Z,102586.92
2019-02-25T06:27:30.439Z,102588.88
2019-02-25T06:29:57.944Z,102590.17
2019-02-25T06:32:30.521Z,102592.26
2019-02-25T06:35:01.836Z,102595.91
2019-02-25T06:37:33.251Z,102581.33
2019-02-25T06:40:06.240Z,102581.59
2019-02-25T06:42:37.699Z,102590.70
2019-02-25T06:45:22.541Z,102588.48
2019-02-25T06:47:53.896Z,102595.25
2019-02-25T06:50:25.289Z,102592.00
2019-02-25T06:52:56.661Z,102586.93
2019-02-25T06:55:28.009Z,102585.50
2019-02-25T06:57:59.417Z,102577.70
2019-02-25T07:00:33.678Z,102592.66
2019-02-25T07:03:05.147Z,102588.88
2019-02-25T07:05:40.932Z,102588.75
2019-02-25T07:08:19.703Z,102581.98
2019-02-25T07:11:07.802Z,102584.18
2019-02-25T07:13:43.532Z,102586.91
2019-02-25T07:16:14.551Z,102581.43
2019-02-25T07:18:47.665Z,102580.92
2019-02-25T07:21:24.716Z,102590.81
2019-02-25T07:23:55.837Z,102583.51
2019-02-25T07:26:31.563Z,102595.08
2019-02-25T07:29:20.678Z,102585.94
2019-02-25T07:31:54.671Z,102585.28
2019-02-25T07:34:43.710Z,102581.34
2019-02-25T07:37:19.488Z,102586.15
2019-02-25T07:39:54.965Z,102586.01
2019-02-25T07:42:36.855Z,102578.56
2019-02-25T07:45:19.352Z,102589.22
2019-02-25T07:47:54.702Z,102596.88
2019-02-25T07:50:33.550Z,102587.58
2019-02-25T07:53:22.719Z,102599.05
2019-02-25T07:56:02.153Z,102597.18
2019-02-25T07:58:41.535Z,102596.22
2019-02-25T08:01:16.986Z,102599.58
2019-02-25T08:03:49.868Z,102593.70
2019-02-25T08:06:29.509Z,102596.64
2019-02-25T08:09:11.128Z,102602.19
2019-02-25T08:11:59.471Z,102598.72
2019-02-25T08:14:38.169Z,102594.85
2019-02-25T08:17:09.388Z,102597.62
2019-02-25T08:19:40.431Z,102599.98
2019-02-25T08:22:14.468Z,102600.36
2019-02-25T08:24:50.116Z,102599.87
2019-02-25T08:27:32.043Z,102598.67
2019-02-25T08:30:11.212Z,102589.70
2019-02-25T08:32:46.875Z,102589.41
2019-02-25T08:36:02.835Z,102594.11
2019-02-25T08:38:38.543Z,102591.59
2019-02-25T08:41:16.647Z,102598.17
2019-02-25T08:43:52.342Z,102594.05
2019-02-25T08:46:31.008Z,102592.30
2019-02-25T08:49:06.681Z,102598.98
2019-02-25T08:51:38.014Z,102595.19
2019-02-25T08:54:09.493Z,102601.50
2019-02-25T08:56:40.797Z,102603.84
2019-02-25T08:59:12.402Z,102606.21
2019-02-25T09:01:43.928Z,102605.55
2019-02-25T09:04:15.287Z,102609.00
2019-02-25T09:06:46.529Z,102605.78
2019-02-25T09:09:17.910Z,102608.22
2019-02-25T09:11:49.612Z,102608.11
2019-02-25T09:14:21.001Z,102613.64
2019-02-25T09:16:52.334Z,102621.00
2019-02-25T09:19:23.702Z,102624.22
2019-02-25T09:21:55.043Z,102625.52
2019-02-25T09:24:26.421Z,102632.08
2019-02-25T09:26:57.685Z,102631.86
2019-02-25T09:29:29.078Z,102626.70
2019-02-25T09:32:00.414Z,102626.18
2019-02-25T09:34:31.773Z,102618.55
2019-02-25T09:37:03.111Z,102614.67
2019-02-25T09:39:35.419Z,102607.05
2019-02-25T09:42:08.492Z,102613.77
2019-02-25T09:44:39.947Z,102613.72
2019-02-25T09:47:11.311Z,102612.36
2019-02-25T09:49:43.676Z,102620.16
2019-02-25T09:52:14.974Z,102611.73
2019-02-25T09:54:46.347Z,102613.81
2019-02-25T09:57:17.784Z,102607.86
2019-02-25T09:59:49.181Z,102607.89
2019-02-25T10:02:20.452Z,102604.66
2019-02-25T10:04:51.772Z,102602.39
2019-02-25T10:07:23.106Z,102600.37
2019-02-25T10:09:54.532Z,102598.17
2019-02-25T10:12:25.794Z,102601.25
2019-02-25T10:14:57.190Z,102600.72
2019-02-25T10:17:28.437Z,102598.00
2019-02-25T10:19:59.822Z,102596.76
2019-02-25T10:22:32.776Z,102594.55
2019-02-25T10:25:06.457Z,102585.72
2019-02-25T10:27:37.833Z,102581.56
2019-02-25T10:30:21.301Z,102584.83
2019-02-25T10:32:52.616Z,102585.60
2019-02-25T10:35:29.223Z,102586.97
2019-02-25T10:38:01.139Z,102591.19
2019-02-25T10:40:33.559Z,102589.91
2019-02-25T10:43:04.866Z,102587.59
2019-02-25T10:45:37.204Z,102587.06
2019-02-25T10:48:09.308Z,102582.98
2019-02-25T10:50:40.953Z,102579.11
2019-02-25T10:53:13.585Z,102577.58
2019-02-25T10:56:03.736Z,102571.80
2019-02-25T10:58:36.005Z,102567.36
2019-02-25T11:01:13.469Z,102571.91
2019-02-25T11:03:40.601Z,102567.20
2019-02-25T11:06:11.991Z,102557.14
2019-02-25T11:08:45.719Z,102563.02
2019-02-25T11:11:20.989Z,102561.49
2019-02-25T11:13:52.057Z,102559.66
2019-02-25T11:16:23.585Z,102553.47
2019-02-25T11:18:56.558Z,102559.48
2019-02-25T11:21:28.077Z,102548.05
2019-02-25T11:23:59.423Z,102534.97
2019-02-25T11:26:32.764Z,102537.00
2019-02-25T11:29:05.448Z,102534.32
2019-02-25T11:31:36.830Z,102529.41
2019-02-25T11:34:08.239Z,102534.15
2019-02-25T11:36:39.635Z,102538.99
2019-02-25T11:39:11.183Z,102546.33
2019-02-25T11:41:42.616Z,102548.94
2019-02-25T11:44:13.957Z,102544.73
2019-02-25T11:46:45.266Z,102550.72
2019-02-25T11:49:16.545Z,102548.58
2019-02-25T11:51:47.991Z,102541.19
2019-02-25T11:54:19.331Z,102543.42
2019-02-25T11:56:50.708Z,102538.16
2019-02-25T11:59:22.027Z,102543.62
2019-02-25T12:01:53.343Z,102544.03
2019-02-25T12:04:24.615Z,102543.59
2019-02-25T12:06:55.991Z,102544.94
2019-02-25T12:09:27.401Z,102529.80
2019-02-25T12:11:58.723Z,102523.75
2019-02-25T12:14:48.139Z,102521.56
2019-02-25T12:17:19.479Z,102524.44
2019-02-25T12:19:50.785Z,102520.70
2019-02-25T12:22:22.166Z,102521.49
2019-02-25T12:24:53.452Z,102519.81
2019-02-25T12:27:24.844Z,102521.23
2019-02-25T12:29:56.184Z,102512.02
2019-02-25T12:32:27.596Z,102512.77
2019-02-25T12:34:58.890Z,102507.09
2019-02-25T12:37:30.198Z,102500.30
2019-02-25T12:40:01.542Z,102496.24
2019-02-25T12:42:34.016Z,102488.31
2019-02-25T12:45:08.963Z,102486.53
2019-02-25T12:47:40.410Z,102483.95
2019-02-25T12:50:19.433Z,102481.19
2019-02-25T12:52:50.828Z,102477.55
2019-02-25T12:55:22.150Z,102472.95
2019-02-25T12:57:53.442Z,102465.28
2019-02-25T13:00:26.311Z,102460.02
2019-02-25T13:02:57.735Z,102458.84
2019-02-25T13:05:29.056Z,102458.97
2019-02-25T13:08:00.449Z,102451.92
2019-02-25T13:10:31.967Z,102447.80
2019-02-25T13:13:03.272Z,102447.73
2019-02-25T13:15:34.616Z,102447.78
2019-02-25T13:18:05.999Z,102447.67
2019-02-25T13:20:37.362Z,102445.38
2019-02-25T13:23:08.756Z,102444.65
2019-02-25T13:25:40.045Z,102439.00
2019-02-25T13:28:11.519Z,102431.01
2019-02-25T13:30:43.057Z,102425.58
2019-02-25T13:33:14.536Z,102423.11
2019-02-25T13:35:45.959Z,102413.23
2019-02-25T13:38:17.564Z,102412.75
2019-02-25T13:40:48.913Z,102405.54
2019-02-25T13:43:20.350Z,102402.25
2019-02-25T13:45:51.762Z,102394.36
2019-02-25T13:48:23.115Z,102386.16
2019-02-25T13:50:54.461Z,102390.88
2019-02-25T13:53:26.036Z,102380.19
2019-02-25T13:55:57.438Z,102377.66
2019-02-25T13:58:35.605Z,102383.11
2019-02-25T14:01:07.048Z,102380.09
2019-02-25T14:03:39.214Z,102371.08
2019-02-25T14:06:10.831Z,102370.83
2019-02-25T14:08:51.608Z,102377.33
2019-02-25T14:11:23.017Z,102367.23
2019-02-25T14:14:01.670Z,102371.64
2019-02-25T14:16:34.248Z,102368.72
2019-02-25T14:19:06.572Z,102362.50
2019-02-25T14:21:37.980Z,102361.89
2019-02-25T14:24:09.670Z,102357.53
2019-02-25T14:26:40.999Z,102351.58
2019-02-25T14:29:12.503Z,102347.70
2019-02-25T14:31:43.893Z,102342.77
2019-02-25T14:34:15.422Z,102340.91
2019-02-25T14:36:48.484Z,102333.80
2019-02-25T14:39:27.841Z,102334.00
2019-02-25T14:41:58.946Z,102328.68
2019-02-25T14:44:32.288Z,102325.93
2019-02-25T14:47:03.453Z,102319.52
2019-02-25T14:49:37.655Z,102313.52
2019-02-25T14:52:08.865Z,102313.22
2019-02-25T14:54:40.241Z,102309.83
2019-02-25T14:57:11.581Z,102305.84
2019-02-25T14:59:43.053Z,102305.41
2019-02-25T15:02:14.505Z,102302.36
2019-02-25T15:04:45.913Z,102304.08
2019-02-25T15:07:17.258Z,102300.81
2019-02-25T15:09:51.919Z,102287.41
2019-02-25T15:12:27.705Z,102290.13
2019-02-25T15:15:00.220Z,102288.66
2019-02-25T15:17:34.166Z,102288.84
2019-02-25T15:20:12.644Z,102291.77
2019-02-25T15:22:45.580Z,102286.38
2019-02-25T15:25:19.926Z,102280.72
2019-02-25T15:27:52.548Z,102275.00
2019-02-25T15:30:31.953Z,102278.53
2019-02-25T15:33:03.357Z,102273.96
2019-02-25T15:35:36.967Z,102270.77
2019-02-25T15:38:07.950Z,102275.25
2019-02-25T15:40:39.609Z,102271.23
2019-02-25T15:43:17.536Z,102268.47
2019-02-25T15:45:47.306Z,102263.94
2019-02-25T15:48:23.197Z,102267.10
2019-02-25T15:50:58.611Z,102275.94
2019-02-25T15:53:29.475Z,102274.84
2019-02-25T15:56:01.889Z,102278.00
2019-02-25T15:58:37.322Z,102281.09
2019-02-25T16:01:09.837Z,102281.09
2019-02-25T16:03:42.948Z,102284.58
2019-02-25T16:06:16.334Z,102284.16
2019-02-25T16:08:50.399Z,102276.56
2019-02-25T16:11:25.608Z,102280.00
2019-02-25T16:13:55.708Z,102279.75
2019-02-25T16:16:28.090Z,102283.05
2019-02-25T16:18:59.625Z,102285.16
2019-02-25T16:21:32.168Z,102280.99
2019-02-25T16:24:04.796Z,102284.92
2019-02-25T16:26:38.211Z,102279.81
2019-02-25T16:29:11.668Z,102274.69
2019-02-25T16:31:43.405Z,102281.05
2019-02-25T16:34:16.442Z,102286.12
2019-02-25T16:36:51.460Z,102279.30
2019-02-25T16:39:21.151Z,102278.71
2019-02-25T16:41:52.499Z,102282.09
2019-02-25T16:44:23.847Z,102283.23
2019-02-25T16:46:56.352Z,102279.00
2019-02-25T16:49:29.149Z,102281.02
2019-02-25T16:52:02.248Z,102275.05
2019-02-25T16:54:33.824Z,102286.25
2019-02-25T16:57:07.208Z,102282.50
2019-02-25T16:59:38.580Z,102281.02
2019-02-25T17:02:13.962Z,102281.47
2019-02-25T17:04:43.198Z,102284.23
2019-02-25T17:07:17.817Z,102289.41
2019-02-25T17:09:48.985Z,102288.62
2019-02-25T17:12:21.186Z,102296.23
2019-02-25T17:14:55.137Z,102294.92
2019-02-25T17:17:26.960Z,102290.66
2019-02-25T17:19:59.826Z,102298.36
2019-02-25T17:22:31.281Z,102295.89
2019-02-25T17:25:05.815Z,102294.87
2019-02-25T17:27:37.870Z,102293.44
2019-02-25T17:30:15.260Z,102289.11
2019-02-25T17:32:48.396Z,102286.93
2019-02-25T17:35:23.587Z,102286.59
2019-02-25T17:37:56.229Z,102289.27
2019-02-25T17:40:28.113Z,102285.83
2019-02-25T17:43:02.180Z,102287.31
2019-02-25T17:45:34.583Z,102292.48
2019-02-25T17:48:08.953Z,102292.20
2019-02-25T17:50:41.635Z,102292.81
2019-02-25T17:53:13.234Z,102292.48
2019-02-25T17:55:44.919Z,102302.32
2019-02-25T17:58:17.045Z,102307.85
2019-02-25T18:00:49.758Z,102308.61
2019-02-25T18:03:22.094Z,102304.95
2019-02-25T18:05:56.310Z,102304.90
2019-02-25T18:08:28.155Z,102309.10
2019-02-25T18:11:00.595Z,102303.49
2019-02-25T18:13:33.487Z,102313.41
2019-02-25T18:16:05.743Z,102314.78
2019-02-25T18:18:39.071Z,102318.02
2019-02-25T18:21:12.386Z,102317.75
2019-02-25T18:23:44.211Z,102318.55
2019-02-25T18:26:20.315Z,102319.70
2019-02-25T18:28:53.721Z,102323.09
2019-02-25T18:31:25.794Z,102317.05
2019-02-25T18:33:57.328Z,102321.70
2019-02-25T18:36:30.929Z,102321.22
2019-02-25T18:39:02.088Z,102321.95
2019-02-25T18:41:35.330Z,102329.67
2019-02-25T18:44:07.580Z,102326.91
2019-02-25T18:46:41.730Z,102327.59
2019-02-25T18:49:13.798Z,102323.08
2019-02-25T18:51:45.290Z,102329.11
2019-02-25T18:54:17.432Z,102328.99
2019-02-25T18:56:50.144Z,102326.34
2019-02-25T18:59:21.837Z,102322.26
2019-02-25T19:01:54.064Z,102328.87
2019-02-25T19:04:26.888Z,102323.95
2019-02-25T19:06:59.770Z,102329.48
2019-02-25T19:09:34.693Z,102329.86
2019-02-25T19:12:08.141Z,102330.83
2019-02-25T19:14:39.688Z,102332.09
2019-02-25T19:17:11.195Z,102336.73
2019-02-25T19:19:44.515Z,102340.16
2019-02-25T19:22:17.883Z,102339.85
2019-02-25T19:24:51.227Z,102344.95
2019-02-25T19:27:22.725Z,102343.90
2019-02-25T19:29:57.971Z,102342.39
2019-02-25T19:32:27.593Z,102348.88
2019-02-25T19:35:01.263Z,102347.98
2019-02-25T19:37:37.627Z,102345.15
2019-02-25T19:40:19.607Z,102347.19
2019-02-25T19:42:51.584Z,102356.09
2019-02-25T19:45:24.212Z,102356.80
2019-02-25T19:47:57.793Z,102355.48
2019-02-25T19:50:29.996Z,102354.77
2019-02-25T19:53:04.655Z,102353.73
2019-02-25T19:55:38.638Z,102348.45
2019-02-25T19:58:09.817Z,102346.52
2019-02-25T20:00:41.405Z,102350.55
2019-02-25T20:03:12.877Z,102347.91
2019-02-25T20:05:46.344Z,102349.88
2019-02-25T20:08:18.635Z,102339.95
2019-02-25T20:10:54.356Z,102338.08
2019-02-25T20:13:25.121Z,102333.44
2019-02-25T20:15:56.440Z,102342.02
2019-02-25T20:18:27.967Z,102336.86
2019-02-25T20:21:03.459Z,102335.54
2019-02-25T20:23:33.236Z,102335.89
2019-02-25T20:26:04.823Z,102340.83
2019-02-25T20:28:36.189Z,102344.72
2019-02-25T20:31:10.026Z,102347.17
2019-02-25T20:33:44.746Z,102338.56
2019-02-25T20:36:19.272Z,102342.97
2019-02-25T20:38:52.118Z,102343.48
2019-02-25T20:41:24.549Z,102341.95
2019-02-25T20:43:58.327Z,102348.01
2019-02-25T20:46:30.800Z,102337.38
2019-02-25T20:49:02.830Z,102335.98
2019-02-25T20:51:36.083Z,102332.03
2019-02-25T20:54:08.928Z,102341.75
2019-02-25T20:56:40.397Z,102337.44
2019-02-25T20:59:11.851Z,102342.30
2019-02-25T21:01:44.617Z,102340.85
2019-02-25T21:04:17.897Z,102353.86
2019-02-25T21:06:50.365Z,102351.84
2019-02-25T21:09:21.867Z,102353.80
2019-02-25T21:11:53.355Z,102357.41
2019-02-25T21:14:24.687Z,102354.02
2019-02-25T21:16:57.986Z,102358.08
2019-02-25T21:19:29.093Z,102354.25
2019-02-25T21:22:04.308Z,102359.80
2019-02-25T21:24:37.470Z,102361.05
2019-02-25T21:27:10.454Z,102351.19
2019-02-25T21:29:41.572Z,102344.80
2019-02-25T21:32:15.084Z,102349.73
2019-02-25T21:34:50.115Z,102348.48
2019-02-25T21:37:20.842Z,102348.41
2019-02-25T21:39:52.108Z,102347.44
2019-02-25T21:42:24.670Z,102343.48
2019-02-25T21:44:57.127Z,102339.80
2019-02-25T21:47:30.901Z,102334.66
2019-02-25T21:50:06.351Z,102335.42
2019-02-25T21:52:38.787Z,102330.15
2019-02-25T21:55:12.083Z,102327.92
2019-02-25T21:57:43.602Z,102319.04
2019-02-25T22:00:20.485Z,102322.51
2019-02-25T22:02:52.681Z,102316.60
2019-02-25T22:05:24.209Z,102320.42
2019-02-25T22:07:57.756Z,102318.05
2019-02-25T22:10:28.764Z,102318.39
2019-02-25T22:13:04.398Z,102317.77
2019-02-25T22:15:36.095Z,102318.31
2019-02-25T22:18:09.312Z,102318.66
2019-02-25T22:20:42.697Z,102312.28
2019-02-25T22:23:13.470Z,102313.67
2019-02-25T22:25:44.902Z,102309.77
2019-02-25T22:28:17.278Z,102312.95
2019-02-25T22:30:49.812Z,102315.64
2019-02-25T22:33:27.363Z,102322.84
2019-02-25T22:35:54.625Z,102322.44
2019-02-25T22:38:25.945Z,102324.84
2019-02-25T22:40:59.441Z,102311.91
2019-02-25T22:43:30.401Z,102309.30
2019-02-25T22:46:02.493Z,102311.11
2019-02-25T22:48:35.832Z,102309.62
2019-02-25T22:51:07.738Z,102312.52
2019-02-25T22:53:39.164Z,102312.29
2019-02-25T22:56:13.394Z,102308.27
2019-02-25T22:58:43.622Z,102309.99
2019-02-25T23:01:17.946Z,102311.00
2019-02-25T23:03:52.169Z,102313.70
2019-02-25T23:06:25.367Z,102312.47
2019-02-25T23:08:56.791Z,102308.28
2019-02-25T23:11:28.278Z,102307.73
2019-02-25T23:13:59.874Z,102308.98
2019-02-25T23:16:31.280Z,102307.44
2019-02-25T23:19:02.652Z,102306.04
2019-02-25T23:21:35.985Z,102311.72
2019-02-25T23:24:07.444Z,102318.23
2019-02-25T23:26:38.965Z,102308.12
2019-02-25T23:29:10.460Z,102311.00
2019-02-25T23:31:48.776Z,102318.23
2019-02-25T23:34:20.409Z,102320.62
2019-02-25T23:36:54.411Z,102317.66
2019-02-25T23:39:26.163Z,102311.98
2019-02-25T23:41:57.570Z,102316.49
2019-02-25T23:44:28.967Z,102316.80
2019-02-25T23:47:01.999Z,102313.46
2019-02-25T23:49:34.269Z,102316.39
2019-02-25T23:52:06.368Z,102322.79
2019-02-25T23:54:37.742Z,102328.43
2019-02-25T23:57:09.125Z,102322.73
2019-02-25T23:59:42.488Z,102330.12
